Time;durP1;ratioP1;P1;durP2;ratioP2;P2;SDS_P1;SDS_P2;PMS_P1;PMS_P2;Temp;Humidity;BMP_temperature;BMP_pressure;BME280_temperature;BME280_humidity;BME280_pressure;Samples;Min_cycle;Max_cycle;Signal;HPM_P1;HPM_P2
2022/06/08 00:01:40;;;;;;;11.10;7.15;;;17.90;99.90;;;;;;6216745;23;20148;-83
2022/06/08 00:04:09;;;;;;;10.68;6.78;;;17.80;99.90;;;;;;6190285;23;20184;-83
2022/06/08 00:06:35;;;;;;;9.93;6.47;;;17.80;99.90;;;;;;6216625;23;20231;-83
2022/06/08 00:15:45;;;;;;;11.45;7.68;;;17.60;99.90;;;;;;6216691;23;20634;-82
2022/06/08 00:18:10;;;;;;;11.35;7.43;;;17.60;99.90;;;;;;6190326;23;20159;-82
2022/06/08 00:20:37;;;;;;;9.80;6.50;;;17.60;99.90;;;;;;6165575;23;20155;-83
2022/06/08 00:23:03;;;;;;;9.00;6.38;;;17.60;99.90;;;;;;6164869;23;20199;-86
2022/06/08 00:25:30;;;;;;;10.73;6.30;;;17.50;99.90;;;;;;6217153;23;20159;-82
2022/06/08 00:27:56;;;;;;;13.35;6.90;;;17.30;99.90;;;;;;6189991;23;20223;-82
2022/06/08 00:30:22;;;;;;;9.60;6.75;;;17.40;99.90;;;;;;6190203;23;20197;-82
2022/06/08 00:32:48;;;;;;;10.60;6.90;;;17.40;99.90;;;;;;6190078;23;20160;-82
2022/06/08 00:35:13;;;;;;;11.88;6.90;;;17.30;99.90;;;;;;6189826;23;20160;-83
2022/06/08 00:37:39;;;;;;;8.45;5.63;;;17.00;99.90;;;;;;6216291;23;20215;-83
2022/06/08 00:40:07;;;;;;;7.70;5.15;;;17.40;99.90;;;;;;6217284;23;20195;-87
2022/06/08 00:42:33;;;;;;;8.70;5.43;;;17.60;99.90;;;;;;6165824;23;20494;-82
2022/06/08 00:45:04;;;;;;;6.30;4.63;;;17.70;99.90;;;;;;6190297;23;20205;-83
2022/06/08 00:47:36;;;;;;;7.43;5.80;;;17.70;99.90;;;;;;6216578;23;20590;-83
2022/06/08 00:56:47;;;;;;;4.55;3.75;;;17.90;99.90;;;;;;6216275;23;20219;-83
2022/06/08 00:59:13;;;;;;;6.70;4.38;;;18.00;99.90;;;;;;6216219;23;20172;-83
2022/06/08 01:01:38;;;;;;;6.85;4.50;;;18.00;99.90;;;;;;6216239;23;20479;-83
2022/06/08 01:04:11;;;;;;;6.28;5.03;;;18.00;99.90;;;;;;6216227;23;20184;-83
2022/06/08 01:06:39;;;;;;;6.30;4.43;;;18.20;99.90;;;;;;6191208;23;20148;-83
2022/06/08 01:09:05;;;;;;;6.75;4.47;;;18.00;99.90;;;;;;6215494;23;20191;-83
2022/06/08 01:11:40;;;;;;;5.93;3.92;;;17.90;99.90;;;;;;6214282;23;20162;-83
2022/06/08 01:14:10;;;;;;;6.97;4.78;;;17.80;99.90;;;;;;6214968;23;20603;-82
2022/06/08 01:16:38;;;;;;;6.25;4.57;;;17.70;99.90;;;;;;6215069;23;20152;-82
2022/06/08 01:19:06;;;;;;;7.93;5.10;;;17.70;99.90;;;;;;6214782;23;20183;-82
2022/06/08 01:21:31;;;;;;;6.13;4.57;;;17.60;99.90;;;;;;6214924;23;20243;-83
2022/06/08 01:24:04;;;;;;;5.90;4.38;;;17.40;99.90;;;;;;6188631;23;20202;-83
2022/06/08 01:26:49;;;;;;;5.63;4.28;;;17.20;99.90;;;;;;6188653;23;20598;-83
2022/06/08 01:29:22;;;;;;;6.70;4.88;;;17.40;99.90;;;;;;6188269;23;20156;-83
2022/06/08 01:31:57;;;;;;;8.05;5.03;;;17.40;99.90;;;;;;6215143;23;20136;-82
2022/06/08 01:34:37;;;;;;;6.30;4.80;;;17.30;99.90;;;;;;6214985;23;20533;-83
2022/06/08 01:37:17;;;;;;;10.20;5.93;;;17.30;99.90;;;;;;6188624;23;20246;-82
2022/06/08 01:40:02;;;;;;;8.43;5.55;;;17.30;99.90;;;;;;6214956;23;20160;-83
2022/06/08 01:42:45;;;;;;;8.25;5.47;;;17.20;99.90;;;;;;6214604;23;20175;-82
2022/06/08 01:45:42;;;;;;;8.50;5.72;;;17.30;99.90;;;;;;6215028;23;20136;-82
2022/06/08 01:48:20;;;;;;;9.02;6.25;;;17.20;99.90;;;;;;6214561;23;20521;-82
2022/06/08 01:51:06;;;;;;;10.90;5.82;;;17.20;99.90;;;;;;6214859;23;20176;-82
2022/06/08 01:53:44;;;;;;;10.30;6.50;;;16.80;99.90;;;;;;6214822;23;20218;-83
2022/06/08 01:56:35;;;;;;;9.70;6.30;;;17.20;99.90;;;;;;6188359;23;20168;-82
2022/06/08 01:59:09;;;;;;;10.05;6.78;;;17.20;99.90;;;;;;6213736;23;20165;-82
2022/06/08 02:01:38;;;;;;;10.90;7.47;;;17.10;99.90;;;;;;6214794;23;20167;-82
2022/06/08 02:04:15;;;;;;;11.20;7.57;;;17.10;99.90;;;;;;6187886;23;20621;-82
2022/06/08 02:07:07;;;;;;;11.25;7.13;;;17.10;99.90;;;;;;6214781;23;20147;-82
2022/06/08 02:09:46;;;;;;;12.43;7.75;;;17.10;99.90;;;;;;6168526;23;1074562;-82
2022/06/08 02:12:13;;;;;;;12.85;7.53;;;17.10;99.90;;;;;;6189781;23;20152;-82
2022/06/08 02:14:45;;;;;;;11.73;7.38;;;17.00;99.90;;;;;;6215723;23;20159;-80
2022/06/08 02:17:18;;;;;;;12.88;7.93;;;17.00;99.90;;;;;;6216442;23;20223;-82
2022/06/08 02:20:01;;;;;;;12.82;7.85;;;17.00;99.90;;;;;;6189751;23;20560;-82
2022/06/08 02:22:34;;;;;;;11.27;7.30;;;17.00;99.90;;;;;;6216785;23;20621;-81
2022/06/08 02:25:09;;;;;;;11.98;8.35;;;17.00;99.90;;;;;;6192549;23;20173;-83
2022/06/08 02:28:00;;;;;;;12.60;8.13;;;16.90;99.90;;;;;;6218744;23;20140;-83
2022/06/08 02:30:29;;;;;;;11.73;8.43;;;16.90;99.90;;;;;;6191874;23;20160;-83
2022/06/08 02:35:54;;;;;;;12.73;8.10;;;16.90;99.90;;;;;;6219813;23;20587;-82
2022/06/08 02:38:24;;;;;;;12.82;8.65;;;16.90;99.90;;;;;;6218463;23;20152;-82
2022/06/08 02:40:57;;;;;;;12.45;8.52;;;16.90;99.90;;;;;;6218423;23;20231;-82
2022/06/08 02:43:32;;;;;;;14.15;9.50;;;16.90;99.90;;;;;;6218545;23;20186;-82
2022/06/08 02:46:19;;;;;;;13.00;8.80;;;17.00;99.90;;;;;;6218537;23;20146;-82
2022/06/08 02:48:45;;;;;;;14.25;9.15;;;16.90;99.90;;;;;;6217843;23;20133;-82
2022/06/08 02:51:11;;;;;;;14.85;9.50;;;17.00;99.90;;;;;;6218149;23;20218;-82
2022/06/08 02:53:41;;;;;;;12.65;8.95;;;16.90;99.90;;;;;;6217659;23;20163;-82
2022/06/08 02:56:33;;;;;;;13.25;8.55;;;17.00;99.90;;;;;;6217291;23;20152;-82
2022/06/08 02:58:58;;;;;;;14.60;8.88;;;16.90;99.90;;;;;;6218191;23;20148;-83
2022/06/08 03:01:51;;;;;;;11.85;8.60;;;17.00;99.90;;;;;;6218349;23;20158;-82
2022/06/08 03:04:23;;;;;;;14.77;9.07;;;16.90;99.90;;;;;;6218251;23;20172;-83
2022/06/08 03:06:56;;;;;;;13.73;8.65;;;16.90;99.90;;;;;;6217638;23;20145;-82
2022/06/08 03:09:23;;;;;;;15.07;8.52;;;17.00;99.90;;;;;;6217324;23;20199;-83
2022/06/08 03:11:59;;;;;;;16.65;9.30;;;17.10;99.90;;;;;;6217542;23;20152;-83
2022/06/08 03:14:28;;;;;;;13.23;8.25;;;17.00;99.90;;;;;;6190863;23;20713;-83
2022/06/08 03:17:04;;;;;;;14.85;8.85;;;17.00;99.90;;;;;;6218333;23;20152;-83
2022/06/08 03:19:34;;;;;;;14.55;8.88;;;17.10;99.90;;;;;;6219257;23;20143;-83
2022/06/08 03:22:00;;;;;;;11.38;7.85;;;17.10;99.90;;;;;;6217798;23;20599;-83
2022/06/08 03:24:27;;;;;;;11.30;8.43;;;17.10;99.90;;;;;;6223055;23;20210;-87
2022/06/08 03:26:59;;;;;;;16.98;10.02;;;17.10;99.90;;;;;;6244361;23;20140;-82
2022/06/08 03:29:26;;;;;;;12.77;8.88;;;17.20;99.90;;;;;;6245199;23;20128;-81
2022/06/08 03:31:53;;;;;;;14.88;9.25;;;17.30;99.90;;;;;;6218728;23;20152;-82
2022/06/08 03:34:18;;;;;;;13.68;9.45;;;17.40;99.90;;;;;;6212455;23;20156;-82
2022/06/08 03:36:44;;;;;;;13.88;9.93;;;17.40;99.90;;;;;;6218265;23;20170;-83
2022/06/08 03:39:10;;;;;;;14.90;9.85;;;17.40;99.90;;;;;;6218183;23;20579;-82
2022/06/08 03:41:36;;;;;;;12.80;8.82;;;17.50;99.90;;;;;;6216877;23;20143;-85
2022/06/08 03:44:03;;;;;;;12.43;8.30;;;17.60;99.90;;;;;;6219207;23;20179;-85
2022/06/08 03:46:35;;;;;;;13.68;9.95;;;17.50;99.90;;;;;;6245020;23;20132;-84
2022/06/08 03:52:26;;;;;;;15.27;9.88;;;17.70;99.90;;;;;;6216986;23;20158;-84
2022/06/08 03:58:16;;;;;;;15.25;10.68;;;18.00;99.90;;;;;;6216874;23;20147;-84
2022/06/08 04:04:11;;;;;;;15.07;9.48;;;18.10;99.90;;;;;;6216627;23;20685;-84
2022/06/08 04:06:37;;;;;;;16.50;10.40;;;18.20;99.90;;;;;;6216917;23;20160;-84
2022/06/08 04:12:25;;;;;;;14.88;8.48;;;18.40;99.90;;;;;;6215833;23;20146;-84
2022/06/08 04:14:52;;;;;;;15.82;10.10;;;18.50;99.90;;;;;;6216374;23;20163;-83
2022/06/08 04:17:18;;;;;;;15.05;10.35;;;18.70;99.90;;;;;;6215805;23;20152;-86
2022/06/08 04:19:47;;;;;;;15.57;10.65;;;;;;;;;;6216865;23;20156;-83
2022/06/08 04:22:14;;;;;;;15.75;10.75;;;18.70;99.90;;;;;;6216486;23;20509;-84
2022/06/08 04:24:40;;;;;;;15.20;9.70;;;18.80;99.90;;;;;;6190350;23;20168;-84
2022/06/08 04:27:05;;;;;;;16.15;10.32;;;18.90;99.90;;;;;;6216433;23;20602;-83
2022/06/08 04:29:31;;;;;;;14.27;9.60;;;18.90;99.90;;;;;;6190784;23;20160;-83
2022/06/08 04:31:57;;;;;;;12.73;9.02;;;19.00;99.90;;;;;;6165167;23;20248;-83
2022/06/08 04:34:23;;;;;;;15.88;9.35;;;19.10;99.90;;;;;;6190260;23;20218;-82
2022/06/08 04:36:49;;;;;;;13.40;9.48;;;19.10;99.90;;;;;;6216451;23;20428;-83
2022/06/08 04:39:15;;;;;;;13.75;8.70;;;19.10;99.90;;;;;;6216529;23;20598;-82
2022/06/08 04:41:41;;;;;;;14.88;9.43;;;19.20;99.90;;;;;;6216039;23;20152;-82
2022/06/08 04:44:07;;;;;;;14.73;9.57;;;19.30;99.90;;;;;;6216064;23;20270;-83
2022/06/08 04:46:33;;;;;;;14.02;9.02;;;19.40;99.90;;;;;;6189609;23;20247;-89
2022/06/08 04:48:59;;;;;;;15.32;9.68;;;19.50;99.90;;;;;;6216574;23;20153;-84
2022/06/08 04:51:25;;;;;;;11.65;8.63;;;19.60;99.90;;;;;;6215999;23;20480;-83
2022/06/08 04:53:50;;;;;;;13.20;9.45;;;19.70;99.90;;;;;;6189024;23;20535;-86
2022/06/08 04:56:16;;;;;;;12.57;9.18;;;19.80;99.90;;;;;;6215851;23;20611;-83
2022/06/08 04:58:42;;;;;;;16.42;10.02;;;19.80;99.90;;;;;;6215719;23;20163;-84
2022/06/08 05:01:08;;;;;;;13.57;9.23;;;19.80;99.90;;;;;;6218674;23;20461;-84
2022/06/08 05:03:34;;;;;;;13.30;8.70;;;19.80;99.90;;;;;;6191804;23;20192;-84
2022/06/08 05:09:24;;;;;;;16.63;9.55;;;;;;;;;;6200441;23;20251;-83
2022/06/08 05:11:50;;;;;;;13.02;9.85;;;;;;;;;;6180255;23;20136;-85
2022/06/08 05:14:16;;;;;;;14.50;10.13;;;;;;;;;;6212920;23;20159;-91
2022/06/08 05:16:43;;;;;;;13.27;9.10;;;;;;;;;;6187707;23;20172;-83
2022/06/08 05:19:09;;;;;;;15.45;9.93;;;;;;;;;;6213122;23;20164;-82
2022/06/08 05:21:35;;;;;;;14.75;10.27;;;20.50;99.90;;;;;;6210503;23;20165;-85
2022/06/08 05:24:00;;;;;;;16.98;10.23;;;20.60;99.90;;;;;;6164626;23;20195;-82
2022/06/08 05:26:26;;;;;;;13.13;9.15;;;20.60;99.90;;;;;;6161056;23;20167;-82
2022/06/08 05:28:52;;;;;;;14.65;9.95;;;20.60;99.90;;;;;;6187014;23;20227;-82
2022/06/08 05:31:17;;;;;;;14.90;9.88;;;20.60;99.90;;;;;;6160238;23;20208;-82
2022/06/08 05:33:43;;;;;;;14.15;9.18;;;20.60;99.90;;;;;;6159573;23;20163;-82
2022/06/08 05:36:09;;;;;;;13.52;9.27;;;20.60;99.90;;;;;;6159528;23;20156;-82
2022/06/08 05:38:35;;;;;;;12.52;9.02;;;20.60;99.90;;;;;;6184895;23;20175;-83
2022/06/08 05:41:01;;;;;;;14.27;9.68;;;20.70;99.90;;;;;;6185382;23;20163;-82
2022/06/08 05:43:27;;;;;;;16.75;10.95;;;20.80;99.90;;;;;;6158227;23;20698;-83
2022/06/08 05:45:52;;;;;;;14.43;9.88;;;20.90;99.90;;;;;;6184807;23;20156;-83
2022/06/08 05:48:18;;;;;;;15.82;9.68;;;21.00;99.90;;;;;;6184708;23;20156;-82
2022/06/08 05:50:45;;;;;;;16.60;10.65;;;22.30;99.90;;;;;;6185518;23;20239;-83
2022/06/08 05:53:13;;;;;;;16.25;10.40;;;21.20;99.90;;;;;;6185404;23;20235;-82
2022/06/08 05:55:38;;;;;;;15.13;10.25;;;21.10;99.90;;;;;;6184870;23;20686;-82
2022/06/08 05:58:04;;;;;;;14.20;9.73;;;21.20;99.90;;;;;;6186656;23;20180;-83
2022/06/08 06:00:34;;;;;;;15.05;10.05;;;21.10;99.90;;;;;;6186579;23;20156;-83
2022/06/08 06:03:00;;;;;;;14.20;9.82;;;21.20;99.90;;;;;;6186050;23;20280;-83
2022/06/08 06:05:28;;;;;;;17.55;10.43;;;21.20;99.90;;;;;;6185620;23;20179;-83
2022/06/08 06:07:56;;;;;;;18.92;10.80;;;21.30;99.90;;;;;;6186279;23;20159;-82
2022/06/08 06:10:23;;;;;;;16.83;10.75;;;21.40;99.90;;;;;;6185513;23;20214;-83
2022/06/08 06:12:51;;;;;;;14.13;9.32;;;;;;;;;;6160696;23;20615;-89
2022/06/08 06:15:17;;;;;;;17.35;10.68;;;;;;;;;;6160875;23;20175;-88
2022/06/08 06:17:43;;;;;;;14.63;9.35;;;22.20;99.90;;;;;;6186776;23;20588;-82
2022/06/08 06:20:09;;;;;;;15.82;10.15;;;21.50;99.90;;;;;;6161941;23;20188;-82
2022/06/08 06:22:35;;;;;;;12.00;9.05;;;21.50;99.90;;;;;;6160968;23;20523;-82
2022/06/08 06:25:03;;;;;;;16.85;11.13;;;21.50;99.90;;;;;;6187544;23;20156;-83
2022/06/08 06:27:29;;;;;;;16.25;10.30;;;21.70;99.90;;;;;;6160699;23;20468;-83
2022/06/08 06:29:54;;;;;;;17.35;10.80;;;21.70;99.90;;;;;;6187670;23;20164;-81
2022/06/08 06:32:26;;;;;;;17.15;11.50;;;21.80;99.90;;;;;;6161417;23;20157;-83
2022/06/08 06:34:54;;;;;;;16.30;11.15;;;21.80;99.90;;;;;;6187976;23;20148;-83
2022/06/08 06:37:19;;;;;;;15.75;10.73;;;21.80;99.90;;;;;;6186015;23;20572;-89
2022/06/08 06:39:45;;;;;;;17.42;10.75;;;21.90;99.90;;;;;;6159960;23;20157;-82
2022/06/08 06:42:20;;;;;;;15.35;10.20;;;22.00;99.90;;;;;;6185696;23;20152;-81
2022/06/08 06:44:46;;;;;;;15.70;9.55;;;22.10;99.90;;;;;;6186306;23;20152;-81
2022/06/08 06:47:12;;;;;;;15.23;10.45;;;22.30;99.90;;;;;;6186124;23;20204;-81
2022/06/08 06:49:38;;;;;;;14.88;10.35;;;22.40;99.90;;;;;;6186594;23;20157;-82
2022/06/08 06:52:04;;;;;;;15.27;10.40;;;22.30;99.90;;;;;;6187139;23;20156;-81
2022/06/08 06:54:31;;;;;;;18.38;11.10;;;22.40;99.90;;;;;;6186873;23;20164;-82
2022/06/08 06:56:57;;;;;;;17.40;10.45;;;22.60;99.90;;;;;;6187047;23;20475;-82
2022/06/08 06:59:22;;;;;;;13.50;10.25;;;22.50;99.90;;;;;;6160604;23;20153;-88
2022/06/08 07:01:48;;;;;;;18.92;11.43;;;22.60;99.90;;;;;;6186988;23;20528;-82
2022/06/08 07:04:18;;;;;;;13.35;9.88;;;22.60;99.90;;;;;;6187031;23;20221;-81
2022/06/08 07:06:44;;;;;;;16.33;10.82;;;22.60;99.90;;;;;;6186769;23;20176;-82
2022/06/08 07:09:09;;;;;;;15.55;10.88;;;22.60;99.90;;;;;;6186213;23;20149;-81
2022/06/08 07:11:37;;;;;;;18.80;10.98;;;22.60;99.90;;;;;;6186087;23;20196;-82
2022/06/08 07:14:05;;;;;;;12.82;9.80;;;22.60;99.90;;;;;;6186989;23;20240;-81
2022/06/08 07:16:32;;;;;;;15.82;10.65;;;22.80;99.90;;;;;;6186557;23;20156;-82
2022/06/08 07:18:58;;;;;;;20.20;10.05;;;22.70;99.90;;;;;;6186756;23;20160;-81
2022/06/08 07:21:24;;;;;;;14.38;9.35;;;22.80;99.90;;;;;;6187008;23;20169;-81
2022/06/08 07:23:50;;;;;;;16.10;9.98;;;22.90;99.90;;;;;;6160730;23;20665;-79
2022/06/08 07:26:17;;;;;;;16.45;10.80;;;23.00;99.90;;;;;;6188217;23;20216;-80
2022/06/08 07:28:43;;;;;;;15.82;10.25;;;23.00;99.90;;;;;;6187459;23;20184;-80
2022/06/08 07:31:14;;;;;;;15.82;10.65;;;23.10;99.90;;;;;;6187240;23;20496;-80
2022/06/08 07:33:40;;;;;;;16.67;10.93;;;23.20;99.90;;;;;;6187769;23;20215;-80
2022/06/08 07:36:06;;;;;;;18.75;11.65;;;23.30;99.90;;;;;;6188410;23;20149;-80
2022/06/08 07:38:33;;;;;;;16.35;11.27;;;23.30;99.90;;;;;;6187746;23;20164;-80
2022/06/08 07:40:58;;;;;;;15.60;10.80;;;23.30;99.90;;;;;;6187684;23;20153;-80
2022/06/08 07:43:24;;;;;;;15.25;10.02;;;23.50;99.90;;;;;;6187066;23;20198;-80
2022/06/08 07:45:50;;;;;;;17.02;10.18;;;23.60;99.90;;;;;;6160212;23;20219;-80
2022/06/08 07:51:00;;;;;;;16.00;10.30;;;23.70;99.90;;;;;;6186232;23;20204;-81
2022/06/08 07:53:26;;;;;;;18.33;10.65;;;24.00;99.90;;;;;;6186565;23;20239;-81
2022/06/08 07:55:51;;;;;;;14.82;10.38;;;24.00;99.90;;;;;;6186274;23;20160;-80
2022/06/08 07:58:17;;;;;;;15.45;10.30;;;24.00;99.90;;;;;;6159900;23;20248;-80
2022/06/08 08:00:46;;;;;;;14.60;9.43;;;24.10;99.90;;;;;;6185908;23;20163;-80
2022/06/08 08:03:16;;;;;;;16.02;10.77;;;24.00;99.90;;;;;;6186541;23;20184;-80
2022/06/08 08:05:43;;;;;;;18.77;10.35;;;23.90;99.90;;;;;;6186025;23;20224;-80
2022/06/08 08:08:09;;;;;;;15.98;10.27;;;23.70;99.90;;;;;;6186461;23;20167;-80
2022/06/08 08:10:35;;;;;;;15.90;10.90;;;23.60;99.90;;;;;;6186181;23;20188;-81
2022/06/08 08:13:01;;;;;;;13.40;9.75;;;23.60;99.90;;;;;;6159993;23;20168;-80
2022/06/08 08:15:27;;;;;;;15.65;10.65;;;23.50;99.90;;;;;;6160140;23;20647;-80
2022/06/08 08:17:53;;;;;;;16.75;10.98;;;23.40;99.90;;;;;;6186111;23;20159;-81
2022/06/08 08:20:20;;;;;;;14.13;9.80;;;23.40;99.90;;;;;;6186337;23;20159;-80
2022/06/08 08:22:46;;;;;;;15.02;10.70;;;23.40;99.90;;;;;;6159560;23;20189;-81
2022/06/08 08:25:15;;;;;;;15.20;11.32;;;23.40;99.90;;;;;;6186356;23;20152;-80
2022/06/08 08:27:42;;;;;;;18.20;11.13;;;23.50;99.90;;;;;;6186128;23;20157;-80
2022/06/08 08:30:10;;;;;;;15.55;11.00;;;23.50;99.90;;;;;;6186313;23;20148;-80
2022/06/08 08:32:36;;;;;;;15.50;10.68;;;23.40;99.90;;;;;;6186249;23;20157;-86
2022/06/08 08:35:03;;;;;;;13.38;10.88;;;23.50;99.90;;;;;;6185824;23;20148;-80
2022/06/08 08:37:30;;;;;;;15.05;10.50;;;23.40;99.90;;;;;;6186224;23;20157;-80
2022/06/08 08:39:56;;;;;;;23.58;11.50;;;;;;;;;;6160014;23;20161;-80
2022/06/08 08:42:22;;;;;;;18.60;10.23;;;;;;;;;;6186355;23;20228;-80
2022/06/08 08:45:06;;;;;;;14.50;9.02;;;23.50;99.90;;;;;;6185985;23;20595;-80
2022/06/08 08:47:35;;;;;;;16.35;11.18;;;23.70;99.90;;;;;;6186311;23;20159;-80
2022/06/08 08:50:42;;;;;;;19.42;10.15;;;23.80;99.90;;;;;;6187384;23;20611;-80
2022/06/08 08:53:24;;;;;;;13.60;9.63;;;23.90;99.90;;;;;;6173481;23;20160;-82
2022/06/08 08:56:28;;;;;;;14.30;10.18;;;24.00;99.90;;;;;;6185981;23;20152;-81
2022/06/08 08:58:54;;;;;;;14.40;9.77;;;24.10;99.90;;;;;;6128766;23;20163;-82
2022/06/08 09:01:31;;;;;;;12.55;8.82;;;24.30;99.90;;;;;;6186179;23;20157;-82
2022/06/08 09:04:25;;;;;;;15.85;9.35;;;24.40;99.90;;;;;;6158871;23;20182;-81
2022/06/08 09:06:51;;;;;;;15.07;10.57;;;24.40;99.90;;;;;;6186126;23;20231;-82
2022/06/08 09:09:21;;;;;;;14.88;9.10;;;24.60;99.90;;;;;;6185484;23;20259;-82
2022/06/08 09:11:47;;;;;;;13.57;8.45;;;24.70;99.90;;;;;;6185814;23;20164;-82
2022/06/08 09:14:17;;;;;;;10.30;7.45;;;24.70;99.90;;;;;;6185867;23;20153;-81
2022/06/08 09:16:49;;;;;;;11.82;7.57;;;24.70;99.90;;;;;;6185755;23;20145;-83
2022/06/08 09:19:24;;;;;;;11.40;8.75;;;24.60;99.90;;;;;;6185794;23;20137;-81
2022/06/08 09:21:53;;;;;;;15.95;9.07;;;24.60;99.90;;;;;;6185621;23;20148;-82
2022/06/08 09:24:30;;;;;;;16.52;9.32;;;24.70;99.90;;;;;;6185679;23;20679;-81
2022/06/08 09:27:05;;;;;;;13.70;8.98;;;24.80;99.90;;;;;;6185503;23;20156;-82
2022/06/08 09:29:30;;;;;;;13.10;8.48;;;24.80;99.90;;;;;;6161310;23;20148;-82
2022/06/08 09:31:56;;;;;;;13.88;8.63;;;25.00;99.90;;;;;;6185225;23;20189;-82
2022/06/08 09:34:34;;;;;;;13.13;8.80;;;25.10;99.90;;;;;;6185258;23;20164;-81
2022/06/08 09:37:20;;;;;;;11.77;7.95;;;25.10;99.90;;;;;;6184584;23;20137;-82
2022/06/08 09:39:47;;;;;;;11.88;8.05;;;25.30;99.90;;;;;;6184492;23;20141;-88
2022/06/08 09:42:57;;;;;;;11.68;7.80;;;25.20;99.90;;;;;;6159690;23;20183;-83
2022/06/08 09:45:39;;;;;;;11.65;7.35;;;25.30;99.90;;;;;;6158818;23;20498;-84
2022/06/08 09:51:41;;;;;;;12.10;8.35;;;25.40;99.90;;;;;;6185887;23;20163;-84
2022/06/08 09:54:13;;;;;;;11.18;7.15;;;25.40;99.90;;;;;;6158403;23;20165;-84
2022/06/08 09:57:08;;;;;;;10.75;7.97;;;25.20;99.90;;;;;;6184549;23;20261;-84
2022/06/08 10:00:00;;;;;;;11.90;8.98;;;25.10;99.90;;;;;;6158821;23;20580;-83
2022/06/08 10:02:40;;;;;;;13.25;9.38;;;24.80;99.90;;;;;;6185078;23;20145;-84
2022/06/08 10:05:38;;;;;;;14.45;9.30;;;24.70;99.90;;;;;;6185352;23;20604;-82
2022/06/08 10:08:24;;;;;;;11.27;8.32;;;24.60;99.90;;;;;;6185253;23;20148;-83
2022/06/08 10:14:21;;;;;;;11.25;8.25;;;25.20;99.90;;;;;;6184892;23;20496;-85
2022/06/08 10:16:58;;;;;;;10.52;7.82;;;25.60;99.90;;;;;;6158616;23;20192;-84
2022/06/08 10:19:31;;;;;;;12.30;8.10;;;25.60;99.90;;;;;;6184977;23;20149;-82
2022/06/08 10:22:01;;;;;;;10.63;7.75;;;25.90;99.90;;;;;;6184648;23;20145;-84
2022/06/08 10:24:33;;;;;;;11.07;8.00;;;26.00;99.90;;;;;;6157885;23;20184;-84
2022/06/08 10:27:16;;;;;;;12.23;8.43;;;26.00;99.90;;;;;;6184368;23;20192;-83
2022/06/08 10:30:00;;;;;;;9.82;6.65;;;25.70;99.90;;;;;;6184115;23;20136;-84
2022/06/08 10:32:36;;;;;;;8.82;7.25;;;26.10;99.90;;;;;;6158078;23;20592;-84
2022/06/08 10:35:31;;;;;;;7.65;6.07;;;26.30;99.90;;;;;;6184960;23;20196;-85
2022/06/08 10:37:58;;;;;;;8.85;6.10;;;26.50;99.90;;;;;;6184956;23;20144;-87
2022/06/08 10:40:29;;;;;;;7.95;5.18;;;26.90;99.90;;;;;;6185724;23;20149;-84
2022/06/08 10:42:55;;;;;;;6.95;5.78;;;27.20;99.90;;;;;;6184281;23;20183;-86
2022/06/08 10:45:23;;;;;;;9.13;6.10;;;27.10;99.90;;;;;;6186980;23;20153;-85
2022/06/08 10:48:01;;;;;;;8.07;6.38;;;27.10;99.90;;;;;;6159917;23;20172;-84
2022/06/08 10:50:33;;;;;;;8.52;6.35;;;27.20;99.90;;;;;;6185133;23;20152;-84
2022/06/08 10:56:24;;;;;;;8.32;6.47;;;27.30;99.90;;;;;;6186040;23;20147;-84
2022/06/08 10:59:03;;;;;;;8.50;6.13;;;27.40;99.90;;;;;;6159828;23;20231;-83
2022/06/08 11:01:50;;;;;;;9.27;7.10;;;26.80;99.90;;;;;;6186405;23;20141;-83
2022/06/08 11:04:31;;;;;;;8.55;5.95;;;26.40;99.90;;;;;;6161234;23;20272;-84
2022/06/08 11:07:00;;;;;;;7.07;5.35;;;26.30;99.90;;;;;;6159980;23;20167;-83
2022/06/08 11:09:32;;;;;;;6.97;5.47;;;26.20;99.90;;;;;;6185721;23;20153;-84
2022/06/08 11:12:14;;;;;;;7.18;5.63;;;26.40;99.90;;;;;;6186364;23;20580;-83
2022/06/08 11:14:51;;;;;;;8.45;4.72;;;26.90;99.90;;;;;;6186723;23;20144;-86
2022/06/08 11:17:19;;;;;;;6.63;5.28;;;27.30;99.90;;;;;;6159998;23;20243;-83
2022/06/08 11:19:46;;;;;;;8.90;6.00;;;27.40;99.90;;;;;;6159601;23;20175;-83
2022/06/08 11:22:25;;;;;;;8.52;4.75;;;27.70;99.90;;;;;;6186495;23;20603;-83
2022/06/08 11:24:54;;;;;;;6.10;5.03;;;26.80;99.90;;;;;;6186334;23;20603;-84
2022/06/08 11:28:09;;;;;;;5.72;5.05;;;27.10;99.90;;;;;;6186347;23;20287;-83
2022/06/08 11:30:37;;;;;;;7.20;5.15;;;27.10;99.90;;;;;;6150379;23;20187;-84
2022/06/08 11:33:17;;;;;;;6.68;4.90;;;27.10;99.90;;;;;;6186382;23;20156;-85
2022/06/08 11:35:58;;;;;;;7.32;5.30;;;27.20;99.90;;;;;;6187002;23;20141;-83
2022/06/08 11:38:37;;;;;;;8.55;6.35;;;26.90;99.90;;;;;;6160312;23;20592;-84
2022/06/08 11:41:21;;;;;;;7.57;5.50;;;27.20;99.90;;;;;;6187109;23;20140;-84
2022/06/08 11:43:49;;;;;;;6.60;5.35;;;27.20;99.90;;;;;;6187015;23;20263;-84
2022/06/08 11:46:36;;;;;;;8.23;4.97;;;27.00;99.90;;;;;;6186644;23;20221;-84
2022/06/08 11:49:04;;;;;;;6.18;5.10;;;27.00;99.90;;;;;;6160625;23;20599;-84
2022/06/08 11:51:39;;;;;;;6.65;5.38;;;26.70;99.90;;;;;;6187047;23;20156;-84
2022/06/08 11:54:25;;;;;;;7.55;5.07;;;26.60;99.90;;;;;;6160491;23;20164;-84
2022/06/08 11:57:15;;;;;;;6.80;5.25;;;26.60;99.90;;;;;;6160010;23;20468;-84
2022/06/08 11:59:44;;;;;;;7.43;5.45;;;26.60;99.90;;;;;;6160523;23;20517;-84
2022/06/08 12:02:38;;;;;;;5.72;4.60;;;26.60;99.90;;;;;;6136184;23;20167;-85
2022/06/08 12:05:07;;;;;;;6.57;4.60;;;26.80;99.90;;;;;;6186743;23;20161;-84
2022/06/08 12:07:33;;;;;;;5.90;4.15;;;27.00;99.90;;;;;;6186994;23;20149;-84
2022/06/08 12:09:59;;;;;;;6.22;4.55;;;27.10;99.90;;;;;;6162309;23;20206;-83
2022/06/08 12:12:26;;;;;;;5.63;4.57;;;27.00;99.90;;;;;;6165328;23;20239;-84
2022/06/08 12:14:52;;;;;;;5.57;4.88;;;26.90;99.90;;;;;;6191775;23;20165;-83
2022/06/08 12:17:18;;;;;;;7.40;5.10;;;26.60;99.90;;;;;;6166688;23;20192;-83
2022/06/08 12:19:47;;;;;;;8.40;5.43;;;26.60;99.90;;;;;;6170429;23;20164;-84
2022/06/08 12:22:18;;;;;;;6.53;4.80;;;26.50;99.90;;;;;;6195788;23;20272;-84
2022/06/08 12:25:03;;;;;;;5.85;4.82;;;26.50;99.90;;;;;;6162670;23;20195;-83
2022/06/08 12:27:29;;;;;;;7.10;5.20;;;26.50;99.90;;;;;;6162754;23;20167;-83
2022/06/08 12:29:59;;;;;;;7.28;4.80;;;26.50;99.90;;;;;;6188216;23;20184;-83
2022/06/08 12:32:34;;;;;;;7.00;5.20;;;26.30;99.90;;;;;;6187862;23;20157;-84
2022/06/08 12:35:06;;;;;;;8.35;4.72;;;26.30;99.90;;;;;;6175584;23;20190;-84
2022/06/08 12:37:37;;;;;;;5.03;4.25;;;26.20;99.90;;;;;;6186198;23;20167;-85
2022/06/08 12:40:18;;;;;;;5.50;4.80;;;26.00;99.90;;;;;;6187237;23;20153;-83
2022/06/08 12:43:07;;;;;;;7.10;5.60;;;26.00;99.90;;;;;;6212742;23;20153;-90
2022/06/08 12:45:33;;;;;;;5.15;4.30;;;;;;;;;;6184439;23;20140;-87
2022/06/08 12:48:22;;;;;;;4.97;4.10;;;26.20;99.90;;;;;;6189853;23;20501;-84
2022/06/08 12:50:49;;;;;;;5.22;3.80;;;26.40;99.90;;;;;;6158671;23;20204;-87
2022/06/08 12:53:16;;;;;;;4.78;4.18;;;26.60;99.90;;;;;;6184588;23;21017;-84
2022/06/08 12:55:42;;;;;;;5.32;4.20;;;26.40;99.90;;;;;;6185224;23;20627;-83
2022/06/08 12:58:08;;;;;;;4.93;4.07;;;26.40;99.90;;;;;;6185809;23;20149;-84
2022/06/08 13:00:36;;;;;;;7.70;4.65;;;26.30;99.90;;;;;;6186106;23;20152;-84
2022/06/08 13:03:15;;;;;;;5.75;4.20;;;26.40;99.90;;;;;;6185810;23;20645;-84
2022/06/08 13:05:40;;;;;;;5.35;4.45;;;26.40;99.90;;;;;;6186164;23;20215;-84
2022/06/08 13:08:06;;;;;;;6.15;4.20;;;26.30;99.90;;;;;;6160244;23;20185;-83
2022/06/08 13:10:32;;;;;;;7.13;5.07;;;26.30;99.90;;;;;;6185423;23;20497;-83
2022/06/08 13:13:06;;;;;;;7.93;5.18;;;26.10;99.90;;;;;;6159518;23;20487;-85
2022/06/08 13:15:39;;;;;;;6.20;4.90;;;26.10;99.90;;;;;;6185925;23;20191;-84
2022/06/08 13:18:05;;;;;;;5.68;5.03;;;26.00;99.90;;;;;;6186049;23;20572;-84
2022/06/08 13:20:39;;;;;;;7.30;5.15;;;25.90;99.90;;;;;;6186136;23;20236;-83
2022/06/08 13:23:04;;;;;;;8.52;6.45;;;25.80;99.90;;;;;;6186097;23;20196;-84
2022/06/08 13:25:35;;;;;;;8.73;6.78;;;25.90;99.90;;;;;;6185757;23;20156;-84
2022/06/08 13:28:09;;;;;;;7.95;6.43;;;25.80;99.90;;;;;;6186216;23;20145;-84
2022/06/08 13:30:37;;;;;;;8.18;6.03;;;25.80;99.90;;;;;;6185248;23;20144;-84
2022/06/08 13:33:03;;;;;;;8.18;6.35;;;25.80;99.90;;;;;;6160729;23;20164;-83
2022/06/08 13:35:30;;;;;;;16.52;6.90;;;25.90;99.90;;;;;;6159174;23;20692;-83
2022/06/08 13:37:57;;;;;;;7.45;5.75;;;25.90;99.90;;;;;;6185563;23;20176;-82
2022/06/08 13:40:29;;;;;;;7.03;5.93;;;25.90;99.90;;;;;;6185510;23;20164;-83
2022/06/08 13:42:56;;;;;;;7.70;5.20;;;25.80;99.90;;;;;;6158640;23;20246;-83
2022/06/08 13:45:26;;;;;;;8.75;5.97;;;25.80;99.90;;;;;;6185149;23;20155;-83
2022/06/08 13:48:02;;;;;;;7.45;6.03;;;25.80;99.90;;;;;;6185231;23;20192;-83